createdAt,value
2022-10-23T00:00:34.616Z,36.75
2022-10-23T00:03:37.107Z,35.13
2022-10-23T00:06:39.876Z,35.80
2022-10-23T00:09:42.378Z,40.67
2022-10-23T00:12:45.172Z,37.80
2022-10-23T00:15:47.780Z,40.20
2022-10-23T00:18:50.155Z,40.72
2022-10-23T00:21:52.570Z,37.97
2022-10-23T00:24:54.920Z,38.17
2022-10-23T00:27:57.279Z,40.17
2022-10-23T00:31:03.146Z,39.17
2022-10-23T00:34:08.389Z,38.78
2022-10-23T00:37:11.262Z,43.63
2022-10-23T00:40:13.780Z,38.57
2022-10-23T00:43:22.506Z,36.47
2022-10-23T00:46:25.065Z,40.65
2022-10-23T00:49:28.349Z,41.08
2022-10-23T00:52:31.047Z,39.53
2022-10-23T00:55:34.110Z,45.73
2022-10-23T00:58:36.858Z,48.17
2022-10-23T01:01:39.944Z,45.00
2022-10-23T01:04:42.923Z,47.90
2022-10-23T01:08:05.238Z,47.22
2022-10-23T01:11:22.248Z,42.77
2022-10-23T01:15:10.466Z,43.80
2022-10-23T01:18:35.111Z,42.25
2022-10-23T01:21:37.459Z,41.53
2022-10-23T01:24:56.663Z,42.17
2022-10-23T01:28:09.378Z,35.20
2022-10-23T01:31:18.060Z,36.83
2022-10-23T01:34:29.618Z,42.38
2022-10-23T01:37:58.613Z,35.95
2022-10-23T01:41:07.602Z,36.80
2022-10-23T01:44:27.891Z,32.20
2022-10-23T01:47:34.085Z,39.30
2022-10-23T01:50:43.555Z,36.15
2022-10-23T01:53:49.388Z,39.20
2022-10-23T01:56:53.079Z,45.00
2022-10-23T02:00:05.848Z,44.00
2022-10-23T02:03:13.792Z,39.27
2022-10-23T02:06:16.938Z,36.28
2022-10-23T02:09:19.492Z,33.47
2022-10-23T02:12:40.691Z,31.95
2022-10-23T02:15:53.612Z,32.23
2022-10-23T02:18:59.285Z,30.93
2022-10-23T02:22:10.327Z,28.83
2022-10-23T02:25:21.974Z,31.08
2022-10-23T02:28:28.933Z,31.90
2022-10-23T02:31:34.799Z,32.63
2022-10-23T02:34:37.482Z,31.30
2022-10-23T02:37:40.415Z,34.15
2022-10-23T02:40:46.046Z,29.30
2022-10-23T02:43:59.768Z,28.35
2022-10-23T02:47:11.347Z,27.73
2022-10-23T02:50:35.393Z,26.60
2022-10-23T02:53:52.094Z,30.05
2022-10-23T02:57:05.879Z,32.47
2022-10-23T03:00:13.587Z,33.28
2022-10-23T03:03:40.596Z,32.73
2022-10-23T03:06:43.230Z,33.90
2022-10-23T03:09:51.947Z,34.30
2022-10-23T03:12:54.339Z,36.35
2022-10-23T03:15:56.823Z,35.70
2022-10-23T03:19:02.275Z,35.27
2022-10-23T03:22:05.579Z,34.40
2022-10-23T03:25:08.525Z,32.90
2022-10-23T03:28:11.616Z,32.95
2022-10-23T03:31:14.183Z,32.75
2022-10-23T03:34:16.671Z,29.63
2022-10-23T03:37:19.215Z,31.27
2022-10-23T03:40:21.586Z,31.27
2022-10-23T03:43:24.011Z,34.58
2022-10-23T03:46:26.571Z,34.00
2022-10-23T03:49:30.172Z,32.77
2022-10-23T03:52:38.773Z,34.43
2022-10-23T03:55:41.263Z,31.48
2022-10-23T03:58:43.795Z,37.05
2022-10-23T04:01:46.792Z,34.58
2022-10-23T04:04:49.299Z,38.00
2022-10-23T04:07:51.792Z,37.53
2022-10-23T04:10:55.035Z,36.88
2022-10-23T04:14:07.288Z,34.63
2022-10-23T04:17:13.430Z,40.03
2022-10-23T04:20:16.011Z,44.60
2022-10-23T04:23:18.571Z,42.13
2022-10-23T04:26:22.156Z,42.72
2022-10-23T04:29:24.816Z,39.60
2022-10-23T04:32:27.314Z,43.38
2022-10-23T04:35:29.948Z,44.33
2022-10-23T04:38:32.633Z,46.03
2022-10-23T04:41:38.845Z,45.90
2022-10-23T04:44:41.530Z,43.60
2022-10-23T04:47:44.044Z,45.67
2022-10-23T04:50:56.391Z,49.97
2022-10-23T04:54:21.360Z,44.77
2022-10-23T04:57:38.059Z,49.72
2022-10-23T05:00:43.059Z,42.83
2022-10-23T05:03:45.464Z,43.28
2022-10-23T05:06:48.469Z,46.67
2022-10-23T05:10:12.661Z,60.93
2022-10-23T05:13:30.920Z,60.00
2022-10-23T05:16:48.338Z,159.85
2022-10-23T05:19:56.331Z,165.18
2022-10-23T05:23:00.736Z,168.70
2022-10-23T05:26:05.055Z,219.20
2022-10-23T05:29:07.889Z,99.72
2022-10-23T05:32:15.179Z,108.20
2022-10-23T05:35:23.202Z,117.53
2022-10-23T05:38:29.299Z,105.43
2022-10-23T05:41:31.971Z,99.07
2022-10-23T05:44:35.446Z,145.95
2022-10-23T05:48:05.812Z,128.50
2022-10-23T05:52:01.078Z,125.17
2022-10-23T05:55:26.709Z,129.23
2022-10-23T05:58:52.227Z,130.00
2022-10-23T06:02:23.858Z,138.48
2022-10-23T06:05:32.610Z,165.95
2022-10-23T06:08:59.503Z,161.87
2022-10-23T06:12:02.837Z,143.70
2022-10-23T06:15:07.875Z,114.75
2022-10-23T06:18:30.103Z,95.38
2022-10-23T06:21:41.380Z,74.07
2022-10-23T06:24:46.129Z,67.13
2022-10-23T06:27:54.976Z,61.17
2022-10-23T06:30:59.132Z,53.58
2022-10-23T06:34:01.913Z,57.38
2022-10-23T06:37:06.297Z,54.38
2022-10-23T06:40:20.098Z,48.10
2022-10-23T06:43:50.319Z,29.83
2022-10-23T06:47:02.389Z,28.17
2022-10-23T06:50:43.005Z,31.85
2022-10-23T06:53:52.798Z,32.22
2022-10-23T06:57:34.155Z,30.87
2022-10-23T07:00:40.194Z,30.37
2022-10-23T07:03:42.644Z,30.10
2022-10-23T07:06:45.257Z,33.75
2022-10-23T07:09:47.700Z,35.42
2022-10-23T07:13:00.875Z,36.80
2022-10-23T07:16:19.622Z,37.03
2022-10-23T07:19:22.083Z,36.15
2022-10-23T07:22:36.682Z,38.65
2022-10-23T07:25:46.338Z,35.28
2022-10-23T07:28:56.274Z,35.20
2022-10-23T07:32:01.006Z,34.67
2022-10-23T07:35:35.568Z,33.55
2022-10-23T07:38:45.392Z,41.20
2022-10-23T07:41:48.039Z,53.05
2022-10-23T07:44:50.480Z,40.70
2022-10-23T07:47:53.131Z,37.60
2022-10-23T07:51:01.495Z,37.35
2022-10-23T07:54:04.339Z,33.28
2022-10-23T07:57:35.616Z,34.08
2022-10-23T08:00:52.024Z,32.50
2022-10-23T08:04:02.345Z,29.43
2022-10-23T08:07:05.752Z,30.92
2022-10-23T08:10:13.888Z,28.02
2022-10-23T08:13:22.279Z,28.67
2022-10-23T08:16:35.430Z,26.57
2022-10-23T08:19:46.461Z,25.20
2022-10-23T08:22:51.444Z,26.08
2022-10-23T08:26:00.517Z,29.05
2022-10-23T08:29:05.841Z,27.85
2022-10-23T08:32:08.252Z,25.97
2022-10-23T08:35:23.860Z,25.90
2022-10-23T08:38:26.483Z,24.38
2022-10-23T08:41:38.363Z,23.77
2022-10-23T08:44:55.331Z,26.10
2022-10-23T08:48:06.706Z,23.37
2022-10-23T08:51:35.954Z,23.90
2022-10-23T08:55:17.315Z,23.80
2022-10-23T08:58:32.017Z,23.30
2022-10-23T09:01:42.013Z,23.42
2022-10-23T09:04:47.763Z,22.47
2022-10-23T09:08:08.998Z,22.47
2022-10-23T09:11:20.723Z,24.00
2022-10-23T09:14:57.238Z,24.17
2022-10-23T09:18:07.839Z,23.98
2022-10-23T09:21:10.792Z,23.27
2022-10-23T09:24:17.798Z,30.53
2022-10-23T09:27:20.590Z,22.20
2022-10-23T09:30:42.841Z,25.35
2022-10-23T09:33:57.500Z,25.48
2022-10-23T09:37:17.455Z,28.10
2022-10-23T09:40:30.128Z,23.87
2022-10-23T09:43:32.696Z,29.85
2022-10-23T09:47:12.060Z,32.10
2022-10-23T09:50:20.786Z,31.33
2022-10-23T09:53:26.269Z,28.47
2022-10-23T09:56:34.077Z,30.07
2022-10-23T09:59:36.443Z,34.50
2022-10-23T10:02:38.912Z,31.90
2022-10-23T10:06:04.113Z,30.83
2022-10-23T10:09:15.515Z,26.10
2022-10-23T10:12:37.564Z,30.10
2022-10-23T10:15:50.707Z,28.23
2022-10-23T10:19:02.183Z,29.35
2022-10-23T10:22:10.549Z,29.88
2022-10-23T10:25:22.045Z,30.10
2022-10-23T10:28:43.175Z,29.87
2022-10-23T10:32:11.978Z,30.15
2022-10-23T10:35:25.508Z,31.13
2022-10-23T10:38:50.016Z,29.27
2022-10-23T10:41:58.606Z,30.37
2022-10-23T10:45:01.622Z,28.30
2022-10-23T10:48:19.201Z,27.45
2022-10-23T10:52:28.708Z,28.30
2022-10-23T10:55:39.454Z,32.13
2022-10-23T10:58:48.281Z,37.40
2022-10-23T11:01:59.926Z,35.37
2022-10-23T11:05:14.158Z,37.30
2022-10-23T11:08:22.427Z,37.40
2022-10-23T11:11:32.099Z,36.05
2022-10-23T11:14:35.241Z,35.03
2022-10-23T11:17:44.128Z,36.40
2022-10-23T11:20:46.728Z,33.80
2022-10-23T11:24:16.972Z,35.97
2022-10-23T11:27:30.634Z,34.10
2022-10-23T11:30:40.274Z,32.97
2022-10-23T11:34:14.642Z,32.20
2022-10-23T11:37:22.236Z,31.75
2022-10-23T11:40:25.712Z,30.05
2022-10-23T11:43:31.347Z,31.88
2022-10-23T11:46:36.807Z,33.83
2022-10-23T11:49:39.233Z,32.17
2022-10-23T11:53:46.537Z,34.58
2022-10-23T11:57:10.436Z,31.10
2022-10-23T12:00:23.446Z,33.53
2022-10-23T12:03:32.385Z,32.43
2022-10-23T12:06:45.267Z,31.97
2022-10-23T12:10:01.932Z,33.78
2022-10-23T12:13:06.467Z,35.10
2022-10-23T12:16:08.882Z,36.95
2022-10-23T12:19:20.857Z,38.77
2022-10-23T12:22:28.137Z,39.80
2022-10-23T12:25:58.279Z,39.60
2022-10-23T12:29:25.566Z,39.65
2022-10-23T12:32:34.167Z,34.30
2022-10-23T12:36:07.942Z,33.47
2022-10-23T12:39:29.545Z,31.63
2022-10-23T12:42:32.030Z,34.05
2022-10-23T12:45:40.068Z,30.50
2022-10-23T12:48:50.586Z,31.77
2022-10-23T12:51:57.490Z,30.20
2022-10-23T12:55:00.741Z,29.43
2022-10-23T12:58:03.080Z,32.78
2022-10-23T13:01:06.898Z,28.55
2022-10-23T13:04:24.399Z,29.58
2022-10-23T13:07:29.751Z,34.27
2022-10-23T13:10:35.060Z,28.77
2022-10-23T13:13:41.773Z,27.17
2022-10-23T13:16:44.122Z,24.35
2022-10-23T13:19:50.204Z,27.58
2022-10-23T13:23:07.707Z,28.57
2022-10-23T13:26:30.934Z,26.57
2022-10-23T13:29:34.702Z,26.00
2022-10-23T13:32:37.055Z,28.35
2022-10-23T13:35:39.386Z,27.75
2022-10-23T13:38:44.117Z,24.07
2022-10-23T13:41:48.703Z,23.67
2022-10-23T13:44:53.139Z,24.58
2022-10-23T13:47:59.207Z,23.50
2022-10-23T13:51:22.248Z,26.00
2022-10-23T13:57:35.189Z,29.43
2022-10-23T14:00:38.737Z,26.48
2022-10-23T14:03:41.067Z,27.75
2022-10-23T14:06:43.945Z,28.40
2022-10-23T14:09:46.343Z,28.53
2022-10-23T14:12:53.513Z,30.27
2022-10-23T14:15:56.342Z,30.83
2022-10-23T14:18:59.197Z,29.48
2022-10-23T14:22:01.545Z,30.85
2022-10-23T14:25:05.015Z,31.10
2022-10-23T14:28:07.625Z,30.93
2022-10-23T14:31:15.750Z,28.98
2022-10-23T14:34:18.312Z,30.05
2022-10-23T14:37:21.423Z,27.25
2022-10-23T14:40:24.128Z,32.30
2022-10-23T14:43:26.715Z,28.93
2022-10-23T14:46:29.525Z,30.40
2022-10-23T14:49:32.414Z,30.45
2022-10-23T14:52:34.898Z,29.25
2022-10-23T14:55:37.639Z,30.73
2022-10-23T14:58:40.172Z,28.83
2022-10-23T15:01:45.798Z,30.52
2022-10-23T15:04:50.409Z,30.65
2022-10-23T15:07:52.802Z,30.98
2022-10-23T15:11:00.319Z,31.17
2022-10-23T15:14:02.988Z,30.23
2022-10-23T15:17:05.426Z,28.88
2022-10-23T15:20:08.834Z,27.55
2022-10-23T15:23:12.787Z,27.88
2022-10-23T15:26:23.179Z,27.90
2022-10-23T15:29:25.724Z,29.03
2022-10-23T15:32:29.394Z,29.58
2022-10-23T15:35:32.090Z,28.42
2022-10-23T15:38:34.475Z,30.20
2022-10-23T15:41:39.196Z,28.43
2022-10-23T15:44:41.775Z,31.43
2022-10-23T15:47:44.711Z,33.25
2022-10-23T15:50:47.289Z,37.83
2022-10-23T15:53:49.752Z,39.80
2022-10-23T15:56:54.251Z,40.90
2022-10-23T15:59:57.227Z,38.30
2022-10-23T16:02:59.595Z,44.00
2022-10-23T16:06:13.766Z,49.45
2022-10-23T16:09:16.839Z,44.17
2022-10-23T16:12:19.792Z,38.83
2022-10-23T16:15:22.195Z,31.30
2022-10-23T16:18:24.643Z,32.67
2022-10-23T16:21:30.475Z,32.70
2022-10-23T16:24:33.469Z,31.33
2022-10-23T16:27:35.832Z,32.97
2022-10-23T16:30:42.441Z,33.60
2022-10-23T16:33:44.903Z,37.97
2022-10-23T16:36:47.421Z,35.90
2022-10-23T16:40:16.347Z,30.00
2022-10-23T16:43:51.144Z,28.97
2022-10-23T16:47:13.768Z,33.37
2022-10-23T16:50:17.508Z,34.58
2022-10-23T16:53:20.184Z,34.88
2022-10-23T16:56:31.306Z,33.63
2022-10-23T16:59:33.987Z,31.70
2022-10-23T17:02:37.496Z,30.27
2022-10-23T17:05:40.223Z,33.88
2022-10-23T17:08:43.318Z,32.17
2022-10-23T17:11:46.477Z,34.88
2022-10-23T17:14:49.261Z,32.63
2022-10-23T17:17:51.845Z,33.90
2022-10-23T17:20:58.131Z,36.60
2022-10-23T17:27:09.723Z,36.53
2022-10-23T17:30:12.949Z,36.33
2022-10-23T17:33:16.055Z,34.40
2022-10-23T17:36:20.687Z,32.53
2022-10-23T17:39:26.403Z,33.20
2022-10-23T17:42:29.499Z,35.83
2022-10-23T17:45:34.824Z,36.23
2022-10-23T17:48:39.558Z,34.93
2022-10-23T17:51:42.151Z,35.20
2022-10-23T17:54:44.862Z,36.38
2022-10-23T17:57:52.951Z,36.25
2022-10-23T18:00:55.556Z,37.57
2022-10-23T18:04:01.907Z,33.83
2022-10-23T18:07:05.522Z,30.95
2022-10-23T18:10:08.218Z,32.63
2022-10-23T18:13:11.137Z,35.92
2022-10-23T18:16:14.383Z,34.63
2022-10-23T18:19:18.490Z,35.93
2022-10-23T18:22:21.659Z,33.22
2022-10-23T18:25:24.310Z,33.45
2022-10-23T18:28:28.146Z,30.92
2022-10-23T18:31:31.043Z,33.50
2022-10-23T18:34:33.707Z,33.77
2022-10-23T18:37:41.217Z,29.85
2022-10-23T18:40:44.812Z,29.67
2022-10-23T18:43:47.470Z,32.05
2022-10-23T18:46:51.748Z,28.43
2022-10-23T18:49:54.538Z,29.03
2022-10-23T18:52:57.372Z,30.00
2022-10-23T18:56:00.802Z,29.27
2022-10-23T18:59:06.290Z,28.08
2022-10-23T19:02:10.843Z,27.83
2022-10-23T19:05:13.785Z,27.97
2022-10-23T19:08:16.491Z,28.80
2022-10-23T19:11:22.978Z,31.90
2022-10-23T19:14:28.680Z,34.70
2022-10-23T19:17:32.717Z,35.93
2022-10-23T19:20:36.051Z,33.70
2022-10-23T19:23:41.036Z,34.42
2022-10-23T19:26:44.121Z,37.08
2022-10-23T19:29:50.246Z,36.47
2022-10-23T19:32:53.031Z,42.27
2022-10-23T19:35:55.618Z,42.37
2022-10-23T19:38:58.294Z,46.08
2022-10-23T19:42:01.037Z,51.28
2022-10-23T19:45:05.799Z,52.97
2022-10-23T19:48:08.466Z,55.43
2022-10-23T19:51:13.176Z,51.17
2022-10-23T19:54:15.830Z,52.58
2022-10-23T19:57:22.478Z,47.63
2022-10-23T20:00:28.083Z,43.55
2022-10-23T20:03:30.684Z,43.97
2022-10-23T20:06:34.825Z,42.53
2022-10-23T20:09:38.020Z,48.58
2022-10-23T20:12:44.494Z,48.47
2022-10-23T20:15:54.355Z,50.28
2022-10-23T20:18:57.734Z,48.90
2022-10-23T20:22:00.714Z,47.57
2022-10-23T20:25:03.895Z,48.83
2022-10-23T20:28:08.227Z,40.80
2022-10-23T20:31:15.015Z,42.38
2022-10-23T20:34:19.101Z,39.60
2022-10-23T20:37:21.698Z,40.57
2022-10-23T20:40:24.355Z,42.88
2022-10-23T20:43:27.451Z,37.35
2022-10-23T20:46:30.406Z,36.97
2022-10-23T20:49:33.174Z,36.90
2022-10-23T20:52:35.558Z,37.83
2022-10-23T20:55:42.672Z,39.17
2022-10-23T20:58:45.462Z,38.38
2022-10-23T21:01:52.887Z,34.22
2022-10-23T21:04:55.580Z,35.67
2022-10-23T21:07:57.962Z,31.90
2022-10-23T21:11:00.816Z,33.72
2022-10-23T21:14:03.747Z,35.10
2022-10-23T21:17:06.334Z,34.75
2022-10-23T21:20:09.207Z,36.83
2022-10-23T21:23:11.566Z,37.10
2022-10-23T21:26:15.183Z,33.55
2022-10-23T21:29:19.128Z,32.55
2022-10-23T21:32:22.171Z,32.03
2022-10-23T21:35:26.547Z,31.27
2022-10-23T21:38:32.056Z,31.10
2022-10-23T21:41:34.522Z,30.75
2022-10-23T21:44:41.994Z,30.40
2022-10-23T21:47:44.530Z,28.77
2022-10-23T21:50:47.191Z,32.00
2022-10-23T21:53:51.526Z,29.73
2022-10-23T21:56:54.237Z,28.20
2022-10-23T21:59:56.783Z,28.02
2022-10-23T22:02:59.136Z,28.38
2022-10-23T22:06:01.571Z,29.90
2022-10-23T22:09:05.055Z,27.57
2022-10-23T22:12:12.255Z,29.48
2022-10-23T22:15:14.688Z,29.73
2022-10-23T22:18:17.039Z,29.63
2022-10-23T22:21:26.156Z,31.37
2022-10-23T22:24:28.554Z,27.80
2022-10-23T22:27:30.922Z,31.08
2022-10-23T22:30:36.735Z,29.80
2022-10-23T22:33:39.071Z,32.50
2022-10-23T22:36:41.493Z,31.27
2022-10-23T22:39:43.893Z,34.10
2022-10-23T22:42:46.956Z,33.22
2022-10-23T22:45:49.429Z,35.00
2022-10-23T22:48:52.544Z,35.85
2022-10-23T22:51:55.061Z,33.23
2022-10-23T22:54:57.530Z,37.30
2022-10-23T22:57:59.972Z,34.03
2022-10-23T23:01:04.736Z,36.08
2022-10-23T23:04:19.581Z,34.15
2022-10-23T23:07:29.764Z,35.60
2022-10-23T23:10:32.207Z,34.53
2022-10-23T23:13:35.264Z,34.85
2022-10-23T23:16:37.694Z,38.00
2022-10-23T23:19:40.220Z,34.17
2022-10-23T23:22:42.803Z,34.63
2022-10-23T23:25:48.300Z,36.17
2022-10-23T23:28:55.155Z,34.72
2022-10-23T23:31:58.129Z,32.42
2022-10-23T23:35:01.082Z,36.08
2022-10-23T23:38:07.673Z,35.53
2022-10-23T23:41:15.259Z,36.50
2022-10-23T23:44:17.629Z,37.83
2022-10-23T23:47:20.127Z,34.95
2022-10-23T23:50:22.762Z,33.45
2022-10-23T23:53:25.220Z,32.40
2022-10-23T23:56:28.121Z,35.20
2022-10-23T23:59:30.475Z,37.05
